createdAt,value
2022-08-03T00:00:50.280Z,1.04
2022-08-03T00:01:50.450Z,1.04
2022-08-03T00:02:50.650Z,1.04
2022-08-03T00:03:50.763Z,1.04
2022-08-03T00:04:50.940Z,1.04
2022-08-03T00:06:04.318Z,1.04
2022-08-03T00:06:51.210Z,1.04
2022-08-03T00:07:51.360Z,1.04
2022-08-03T00:08:51.505Z,1.04
2022-08-03T00:09:51.636Z,1.04
2022-08-03T00:10:51.753Z,1.04
2022-08-03T00:11:51.853Z,1.04
2022-08-03T00:12:52.003Z,1.04
2022-08-03T00:13:52.662Z,1.04
2022-08-03T00:14:52.305Z,1.04
2022-08-03T00:15:52.463Z,1.04
2022-08-03T00:16:52.640Z,1.04
2022-08-03T00:17:54.070Z,1.04
2022-08-03T00:18:52.920Z,1.04
2022-08-03T00:19:53.016Z,1.04
2022-08-03T00:20:53.184Z,1.04
2022-08-03T00:21:53.353Z,1.04
2022-08-03T00:22:53.424Z,1.04
2022-08-03T00:23:53.577Z,1.04
2022-08-03T00:24:53.733Z,1.04
2022-08-03T00:25:53.888Z,1.04
2022-08-03T00:26:54.062Z,1.04
2022-08-03T00:27:54.183Z,1.04
2022-08-03T00:28:54.881Z,1.04
2022-08-03T00:29:57.537Z,1.04
2022-08-03T00:30:54.586Z,1.04
2022-08-03T00:31:59.607Z,1.04
2022-08-03T00:32:54.844Z,1.04
2022-08-03T00:33:58.501Z,1.04
2022-08-03T00:34:58.039Z,1.04
2022-08-03T00:35:55.309Z,1.04
2022-08-03T00:36:55.457Z,1.04
2022-08-03T00:37:55.628Z,1.04
2022-08-03T00:38:55.786Z,1.04
2022-08-03T00:39:55.928Z,1.04
2022-08-03T00:40:56.018Z,1.04
2022-08-03T00:41:56.188Z,1.04
2022-08-03T00:42:56.329Z,1.04
2022-08-03T00:43:56.966Z,1.04
2022-08-03T00:44:56.607Z,1.04
2022-08-03T00:45:56.771Z,1.04
2022-08-03T00:46:56.921Z,1.04
2022-08-03T00:47:57.072Z,1.04
2022-08-03T00:48:57.240Z,1.04
2022-08-03T00:49:57.326Z,1.04
2022-08-03T00:50:57.512Z,1.04
2022-08-03T00:51:57.619Z,1.04
2022-08-03T00:52:57.796Z,1.04
2022-08-03T00:53:57.943Z,1.04
2022-08-03T00:54:58.109Z,1.04
2022-08-03T00:55:58.244Z,1.04
2022-08-03T00:56:59.940Z,1.04
2022-08-03T00:57:58.502Z,1.04
2022-08-03T00:58:59.180Z,1.04
2022-08-03T00:59:58.748Z,1.04
2022-08-03T01:00:58.996Z,1.04
2022-08-03T01:01:59.056Z,1.04
2022-08-03T01:02:59.218Z,1.04
2022-08-03T01:03:59.391Z,1.04
2022-08-03T01:04:59.500Z,1.04
2022-08-03T01:05:59.614Z,1.04
2022-08-03T01:06:59.760Z,1.04
2022-08-03T01:07:59.916Z,1.04
2022-08-03T01:09:00.008Z,1.04
2022-08-03T01:10:00.177Z,1.04
2022-08-03T01:11:00.324Z,1.04
2022-08-03T01:12:01.769Z,1.04
2022-08-03T01:13:00.579Z,1.04
2022-08-03T01:14:03.756Z,1.04
2022-08-03T01:15:00.813Z,1.04
2022-08-03T01:16:00.980Z,1.04
2022-08-03T01:17:01.144Z,1.04
2022-08-03T01:18:01.263Z,1.04
2022-08-03T01:19:01.344Z,1.04
2022-08-03T01:20:01.825Z,1.04
2022-08-03T01:21:01.639Z,1.04
2022-08-03T01:22:01.790Z,1.04
2022-08-03T01:23:01.940Z,1.04
2022-08-03T01:24:02.050Z,1.04
2022-08-03T01:25:02.206Z,1.04
2022-08-03T01:26:02.351Z,1.04
2022-08-03T01:27:03.278Z,1.04
2022-08-03T01:28:02.641Z,1.04
2022-08-03T01:29:03.384Z,1.04
2022-08-03T01:30:02.957Z,1.04
2022-08-03T01:31:03.114Z,1.04
2022-08-03T01:32:51.857Z,1.04
2022-08-03T01:33:03.633Z,1.04
2022-08-03T01:34:03.565Z,1.04
2022-08-03T01:35:03.690Z,1.04
2022-08-03T01:36:03.772Z,1.04
2022-08-03T01:37:03.889Z,1.04
2022-08-03T01:38:04.020Z,1.04
2022-08-03T01:39:04.136Z,1.04
2022-08-03T01:40:04.269Z,1.04
2022-08-03T01:41:04.370Z,1.04
2022-08-03T01:42:04.478Z,1.04
2022-08-03T01:43:04.629Z,1.04
2022-08-03T01:44:28.752Z,1.04
2022-08-03T01:45:04.924Z,1.04
2022-08-03T01:46:05.091Z,1.04
2022-08-03T01:47:05.247Z,1.04
2022-08-03T01:48:05.400Z,1.04
2022-08-03T01:49:09.080Z,1.04
2022-08-03T01:50:05.653Z,1.04
2022-08-03T01:51:05.808Z,1.04
2022-08-03T01:52:05.963Z,1.04
2022-08-03T01:53:06.107Z,1.04
2022-08-03T01:54:06.254Z,1.04
2022-08-03T01:55:06.357Z,1.04
2022-08-03T01:56:06.512Z,1.04
2022-08-03T01:57:06.666Z,1.04
2022-08-03T01:58:06.993Z,1.04
2022-08-03T01:59:07.411Z,1.04
2022-08-03T02:00:07.050Z,1.04
2022-08-03T02:01:07.230Z,1.04
2022-08-03T02:02:15.045Z,1.04
2022-08-03T02:03:07.469Z,1.04
2022-08-03T02:04:07.616Z,1.04
2022-08-03T02:05:10.820Z,1.04
2022-08-03T02:06:56.809Z,1.04
2022-08-03T02:07:08.065Z,1.04
2022-08-03T02:08:08.243Z,1.04
2022-08-03T02:09:08.376Z,1.04
2022-08-03T02:10:08.556Z,1.04
2022-08-03T02:11:08.682Z,1.04
2022-08-03T02:12:08.882Z,1.04
2022-08-03T02:13:08.889Z,1.04
2022-08-03T02:14:09.029Z,1.04
2022-08-03T02:15:09.114Z,1.04
2022-08-03T02:16:09.225Z,1.04
2022-08-03T02:17:09.393Z,1.04
2022-08-03T02:18:09.536Z,1.04
2022-08-03T02:19:09.690Z,1.04
2022-08-03T02:20:09.868Z,1.04
2022-08-03T02:21:11.224Z,1.04
2022-08-03T02:22:10.142Z,1.04
2022-08-03T02:23:10.249Z,1.04
2022-08-03T02:24:10.407Z,1.04
2022-08-03T02:25:10.589Z,1.04
2022-08-03T02:26:10.716Z,1.04
2022-08-03T02:27:10.871Z,1.04
2022-08-03T02:28:11.021Z,1.04
2022-08-03T02:29:11.486Z,1.04
2022-08-03T02:30:11.218Z,1.04
2022-08-03T02:31:11.376Z,1.04
2022-08-03T02:32:11.568Z,1.04
2022-08-03T02:33:11.685Z,1.04
2022-08-03T02:34:11.778Z,1.04
2022-08-03T02:35:11.930Z,1.04
2022-08-03T02:36:12.117Z,1.04
2022-08-03T02:37:12.285Z,1.04
2022-08-03T02:38:12.441Z,1.04
2022-08-03T02:39:12.598Z,1.04
2022-08-03T02:40:12.735Z,1.04
2022-08-03T02:41:12.898Z,1.04
2022-08-03T02:42:13.080Z,1.04
2022-08-03T02:43:13.215Z,1.04
2022-08-03T02:44:13.855Z,1.04
2022-08-03T02:45:13.440Z,1.04
2022-08-03T02:46:13.558Z,1.04
2022-08-03T02:47:13.703Z,1.04
2022-08-03T02:48:13.861Z,1.04
2022-08-03T02:49:35.133Z,1.04
2022-08-03T02:50:14.185Z,1.04
2022-08-03T02:51:14.318Z,1.04
2022-08-03T02:52:15.524Z,1.04
2022-08-03T02:53:14.608Z,2
2022-08-03T02:54:14.695Z,2
2022-08-03T02:55:14.975Z,2
2022-08-03T02:56:15.323Z,2
2022-08-03T02:57:15.272Z,2
2022-08-03T02:58:15.428Z,3.04
2022-08-03T02:59:16.164Z,3.04
2022-08-03T03:00:19.545Z,3.04
2022-08-03T03:01:15.913Z,4
2022-08-03T03:02:16.224Z,4
2022-08-03T03:03:16.099Z,5.04
2022-08-03T03:04:16.239Z,6
2022-08-03T03:05:51.894Z,6
2022-08-03T03:06:16.564Z,7.04
2022-08-03T03:07:16.633Z,8
2022-08-03T03:08:17.589Z,10
2022-08-03T03:09:16.897Z,11.04
2022-08-03T03:10:17.042Z,13.04
2022-08-03T03:11:17.197Z,15.04
2022-08-03T03:12:17.531Z,18
2022-08-03T03:13:17.495Z,21.04
2022-08-03T03:14:18.259Z,24
2022-08-03T03:15:17.761Z,28
2022-08-03T03:16:17.902Z,32
2022-08-03T03:17:18.084Z,37.04
2022-08-03T03:18:22.191Z,43.04
2022-08-03T03:19:18.375Z,99.04
2022-08-03T03:20:26.148Z,113.04
2022-08-03T03:21:18.663Z,128
2022-08-03T03:22:18.820Z,144
2022-08-03T03:23:18.934Z,162
2022-08-03T03:24:19.072Z,182.08
2022-08-03T03:25:19.223Z,203.04
2022-08-03T03:26:19.332Z,226.08
2022-08-03T03:27:19.474Z,250.08
2022-08-03T03:28:19.640Z,277.12
2022-08-03T03:29:20.271Z,306.08
2022-08-03T03:30:19.875Z,337.28
2022-08-03T03:31:19.991Z,370.24
2022-08-03T03:32:20.148Z,404.16
2022-08-03T03:33:20.298Z,441.28
2022-08-03T03:34:20.457Z,479.04
2022-08-03T03:35:20.606Z,520
2022-08-03T03:36:20.688Z,569.28
2022-08-03T03:37:20.852Z,614.08
2022-08-03T03:38:21.003Z,662.4
2022-08-03T03:39:21.152Z,715.52
2022-08-03T03:40:21.308Z,771.2
2022-08-03T03:41:21.459Z,822.4
2022-08-03T03:42:21.569Z,875.52
2022-08-03T03:43:21.710Z,926.08
2022-08-03T03:44:22.450Z,978.56
2022-08-03T03:45:22.015Z,1036.16
2022-08-03T03:46:22.172Z,1113.6
2022-08-03T03:47:27.394Z,1186.56
2022-08-03T03:48:22.478Z,1247.36
2022-08-03T03:49:22.694Z,1287.04
2022-08-03T03:50:22.787Z,1418.24
2022-08-03T03:51:22.946Z,1502.72
2022-08-03T03:52:23.089Z,1580.8
2022-08-03T03:53:23.226Z,1666.56
2022-08-03T03:54:25.404Z,1756.16
2022-08-03T03:55:23.533Z,1843.2
2022-08-03T03:56:23.687Z,1935.36
2022-08-03T03:57:23.786Z,2023.68
2022-08-03T03:58:24.937Z,2108.16
2022-08-03T03:59:24.612Z,2195.2
2022-08-03T04:00:24.194Z,2283.52
2022-08-03T04:01:24.410Z,2379.52
2022-08-03T04:02:24.459Z,2483.2
2022-08-03T04:03:24.596Z,2594.56
2022-08-03T04:04:24.757Z,2795.52
2022-08-03T04:05:24.914Z,3174.4
2022-08-03T04:06:25.066Z,3100.16
2022-08-03T04:07:25.206Z,3694.08
2022-08-03T04:08:25.337Z,5744.64
2022-08-03T04:09:25.466Z,7654.4
2022-08-03T04:10:25.608Z,8581.12
2022-08-03T04:11:29.429Z,9164.8
2022-08-03T04:12:25.963Z,9738.24
2022-08-03T04:13:26.059Z,10337.279
2022-08-03T04:14:26.701Z,10946.56
2022-08-03T04:15:26.366Z,11520
2022-08-03T04:16:26.467Z,12103.68
2022-08-03T04:17:26.572Z,12636.16
2022-08-03T04:18:26.671Z,13598.72
2022-08-03T04:19:26.838Z,14469.12
2022-08-03T04:20:26.948Z,15124.479
2022-08-03T04:21:27.097Z,15851.52
2022-08-03T04:22:27.235Z,16506.88
2022-08-03T04:23:27.395Z,17111.04
2022-08-03T04:24:27.554Z,17756.16
2022-08-03T04:25:27.717Z,18462.72
2022-08-03T04:26:27.868Z,19281.92
2022-08-03T04:27:27.992Z,19978.24
2022-08-03T04:28:30.146Z,20613.12
2022-08-03T04:29:28.867Z,21217.28
2022-08-03T04:30:28.442Z,21872.64
2022-08-03T04:31:28.612Z,22487.04
2022-08-03T04:32:28.794Z,23244.8
2022-08-03T04:33:29.524Z,23982.08
2022-08-03T04:34:29.081Z,24698.88
2022-08-03T04:35:59.757Z,25415.68
2022-08-03T04:36:29.381Z,26091.52
2022-08-03T04:37:29.492Z,26726.4
2022-08-03T04:38:29.617Z,27381.76
2022-08-03T04:39:29.711Z,27873.28
2022-08-03T04:40:29.962Z,28487.68
2022-08-03T04:41:30.034Z,29184
2022-08-03T04:42:30.210Z,29839.36
2022-08-03T04:43:30.324Z,30535.68
2022-08-03T04:44:30.484Z,31170.56
2022-08-03T04:45:30.615Z,31723.52
2022-08-03T04:46:30.802Z,32358.4
2022-08-03T04:47:30.923Z,32829.44
2022-08-03T04:48:31.089Z,33361.92
2022-08-03T04:49:31.294Z,33996.8
2022-08-03T04:50:31.341Z,34631.68
2022-08-03T04:51:31.538Z,35491.84
2022-08-03T04:52:31.600Z,36147.2
2022-08-03T04:53:31.751Z,36904.96
2022-08-03T04:54:31.895Z,37519.36
2022-08-03T04:55:32.055Z,38154.24
2022-08-03T04:56:32.207Z,38748.16
2022-08-03T04:57:32.309Z,39362.56
2022-08-03T04:58:32.468Z,40079.36
2022-08-03T04:59:33.131Z,40673.28
2022-08-03T05:00:32.683Z,41390.08
2022-08-03T05:01:32.855Z,41984
2022-08-03T05:02:32.944Z,42598.4
2022-08-03T05:03:33.140Z,43130.88
2022-08-03T05:04:33.273Z,43622.4
2022-08-03T05:05:36.290Z,44195.84
2022-08-03T05:06:33.583Z,44974.08
2022-08-03T05:07:35.968Z,45834.24
2022-08-03T05:08:33.824Z,46571.52
2022-08-03T05:09:46.120Z,47308.8
2022-08-03T05:10:34.624Z,48128
2022-08-03T05:11:34.257Z,48824.32
2022-08-03T05:12:34.386Z,49520.64
2022-08-03T05:13:34.544Z,50135.04
2022-08-03T05:14:35.291Z,50749.44
2022-08-03T05:15:34.780Z,51404.8
2022-08-03T05:16:34.942Z,51937.28
2022-08-03T05:17:35.103Z,52305.92
2022-08-03T05:18:35.252Z,52592.64
2022-08-03T05:19:35.403Z,53084.16
2022-08-03T05:20:35.550Z,53821.44
2022-08-03T05:21:41.863Z,54476.8
2022-08-03T05:22:35.805Z,55173.12
2022-08-03T05:23:35.958Z,55951.36
2022-08-03T05:24:36.109Z,56606.72
2022-08-03T05:25:36.269Z,57303.04
2022-08-03T05:26:36.444Z,57958.4
2022-08-03T05:27:36.565Z,58449.92
2022-08-03T05:28:36.718Z,58818.56
2022-08-03T05:29:37.549Z,59105.28
2022-08-03T05:30:36.968Z,59473.92
2022-08-03T05:31:37.790Z,59760.64
2022-08-03T05:32:37.271Z,60129.28
2022-08-03T05:33:37.429Z,60661.76
2022-08-03T05:34:37.573Z,61194.24
2022-08-03T05:35:55.404Z,61931.52
2022-08-03T05:36:37.819Z,62545.92
2022-08-03T05:37:37.982Z,63242.24
2022-08-03T05:38:38.177Z,63733.76
2022-08-03T05:39:38.307Z,64102.4
2022-08-03T05:40:38.433Z,64430.08
2022-08-03T05:41:38.589Z,64839.68
2022-08-03T05:42:38.730Z,65085.44
2022-08-03T05:43:38.895Z,65331.2
2022-08-03T05:44:39.246Z,65658.88
2022-08-03T05:45:39.341Z,66191.36
2022-08-03T05:46:39.510Z,66560
2022-08-03T05:47:39.651Z,67133.44
2022-08-03T05:48:39.823Z,67543.04
2022-08-03T05:49:40.146Z,67911.68
2022-08-03T05:50:42.851Z,68362.24
2022-08-03T05:51:40.213Z,69017.6
2022-08-03T05:52:40.359Z,69509.12
2022-08-03T05:53:40.509Z,69836.8
2022-08-03T05:54:55.761Z,70369.28
2022-08-03T05:55:40.730Z,70819.84
2022-08-03T05:56:40.873Z,71516.16
2022-08-03T05:57:41.016Z,72089.6
2022-08-03T05:58:41.128Z,72540.16
2022-08-03T05:59:53.759Z,72785.92
2022-08-03T06:00:41.376Z,73072.64
2022-08-03T06:01:41.567Z,73031.68
2022-08-03T06:02:41.677Z,73236.48
2022-08-03T06:03:41.871Z,73359.36
2022-08-03T06:04:41.993Z,73482.24
2022-08-03T06:05:43.253Z,73523.2
2022-08-03T06:06:42.289Z,73891.84
2022-08-03T06:07:42.444Z,74506.24
2022-08-03T06:08:42.592Z,75161.6
2022-08-03T06:09:56.705Z,76021.76
2022-08-03T06:10:42.875Z,76718.08
2022-08-03T06:11:42.987Z,77414.4
2022-08-03T06:12:43.093Z,77987.84
2022-08-03T06:13:43.269Z,78274.56
2022-08-03T06:14:43.874Z,78397.44
2022-08-03T06:15:43.496Z,78438.4
2022-08-03T06:16:43.609Z,78725.12
2022-08-03T06:17:43.697Z,78848
2022-08-03T06:18:43.846Z,78929.92
2022-08-03T06:19:43.973Z,79134.72
2022-08-03T06:20:44.112Z,79462.4
2022-08-03T06:21:44.275Z,79953.92
2022-08-03T06:22:44.538Z,80568.32
2022-08-03T06:23:53.671Z,81141.76
2022-08-03T06:24:51.544Z,81551.36
2022-08-03T06:25:44.897Z,81960.96
2022-08-03T06:26:45.037Z,82370.56
2022-08-03T06:27:45.232Z,82657.28
2022-08-03T06:28:51.965Z,83025.92
2022-08-03T06:29:45.476Z,83394.56
2022-08-03T06:30:45.639Z,83968
2022-08-03T06:31:45.782Z,84623.36
2022-08-03T06:32:51.591Z,85278.72
2022-08-03T06:33:48.304Z,85770.23
2022-08-03T06:34:46.180Z,85934.08
2022-08-03T06:35:46.345Z,86016
2022-08-03T06:36:46.454Z,86016
2022-08-03T06:37:46.606Z,86016
2022-08-03T06:38:46.752Z,85852.16
2022-08-03T06:39:46.904Z,85852.16
2022-08-03T06:40:47.057Z,85934.08
2022-08-03T06:41:47.209Z,86179.84
2022-08-03T06:42:47.356Z,86671.36
2022-08-03T06:44:02.756Z,87408.64
2022-08-03T06:44:47.634Z,87982.08
2022-08-03T06:45:47.988Z,88391.68
2022-08-03T06:46:48.125Z,88801.28
2022-08-03T06:47:48.265Z,89047.04
2022-08-03T06:48:48.450Z,89128.96
2022-08-03T06:50:13.131Z,89292.8
2022-08-03T06:50:48.711Z,89620.48
2022-08-03T06:52:04.813Z,89784.32
2022-08-03T06:52:48.980Z,89866.23
2022-08-03T06:53:49.133Z,90112
2022-08-03T06:54:49.283Z,90275.84
2022-08-03T06:55:54.015Z,90112
2022-08-03T06:56:49.598Z,89784.32
2022-08-03T06:57:49.730Z,89784.32
2022-08-03T06:58:50.496Z,90112
2022-08-03T07:00:06.662Z,90275.84
2022-08-03T07:00:50.171Z,90767.36
2022-08-03T07:01:50.350Z,91095.04
2022-08-03T07:02:52.621Z,91422.72
2022-08-03T07:03:52.447Z,91586.55
2022-08-03T07:04:50.757Z,91750.4
2022-08-03T07:05:50.902Z,91832.32
2022-08-03T07:06:51.007Z,91832.32
2022-08-03T07:07:51.160Z,91914.23
2022-08-03T07:08:52.981Z,92160
2022-08-03T07:09:55.791Z,92323.84
2022-08-03T07:10:51.554Z,92405.76
2022-08-03T07:11:51.654Z,93143.04
2022-08-03T07:12:52.931Z,93880.32
2022-08-03T07:13:52.470Z,94453.76
2022-08-03T07:14:53.785Z,94945.28
2022-08-03T07:15:54.793Z,95272.96
2022-08-03T07:16:52.372Z,95600.64
2022-08-03T07:17:52.528Z,95928.32
2022-08-03T07:18:52.705Z,96419.84
2022-08-03T07:19:53.368Z,96665.6
2022-08-03T07:20:52.977Z,96665.6
2022-08-03T07:21:53.597Z,97157.12
2022-08-03T07:22:53.243Z,97730.55
2022-08-03T07:23:53.390Z,97894.4
2022-08-03T07:24:53.537Z,98140.16
2022-08-03T07:25:53.695Z,98631.68
2022-08-03T07:26:53.835Z,98877.44
2022-08-03T07:27:53.940Z,99041.28
2022-08-03T07:28:54.667Z,99041.28
2022-08-03T07:29:54.241Z,98795.52
2022-08-03T07:30:54.353Z,98222.08
2022-08-03T07:31:54.488Z,97894.4
2022-08-03T07:32:54.604Z,96993.28
2022-08-03T07:33:54.751Z,96665.6
2022-08-03T07:35:00.090Z,96337.91
2022-08-03T07:35:55.090Z,96092.16
2022-08-03T07:36:55.238Z,96256
2022-08-03T07:37:55.353Z,96583.68
2022-08-03T07:38:55.444Z,96911.36
2022-08-03T07:39:55.569Z,97730.55
2022-08-03T07:40:55.720Z,98549.76
2022-08-03T07:41:55.829Z,99860.48
2022-08-03T07:42:55.975Z,100433.91
2022-08-03T07:43:56.695Z,101253.12
2022-08-03T07:44:56.270Z,101662.72
2022-08-03T07:45:56.435Z,102072.32
2022-08-03T07:46:56.739Z,102481.91
2022-08-03T07:47:56.730Z,102973.44
2022-08-03T07:48:56.929Z,102891.52
2022-08-03T07:49:57.005Z,102645.76
2022-08-03T07:50:57.151Z,102727.68
2022-08-03T07:51:57.301Z,102727.68
2022-08-03T07:52:57.469Z,102481.91
2022-08-03T07:53:57.595Z,102563.84
2022-08-03T07:54:57.757Z,102727.68
2022-08-03T07:55:57.911Z,102891.52
2022-08-03T07:56:58.060Z,102973.44
2022-08-03T07:57:58.287Z,103301.12
2022-08-03T07:58:58.978Z,103546.88
2022-08-03T08:00:01.555Z,104202.23
2022-08-03T08:00:58.582Z,104448
2022-08-03T08:01:58.647Z,105021.44
2022-08-03T08:02:58.785Z,105512.96
2022-08-03T08:03:58.891Z,105676.8
2022-08-03T08:05:03.631Z,105758.72
2022-08-03T08:05:59.227Z,105758.72
2022-08-03T08:06:59.318Z,105267.2
2022-08-03T08:07:59.478Z,105021.44
2022-08-03T08:08:59.614Z,104284.16
2022-08-03T08:09:59.727Z,102891.52
2022-08-03T08:10:59.879Z,104038.4
2022-08-03T08:11:59.976Z,100270.08
2022-08-03T08:13:00.138Z,104038.4
2022-08-03T08:14:00.821Z,104120.32
2022-08-03T08:15:00.427Z,103301.12
2022-08-03T08:16:00.546Z,103546.88
2022-08-03T08:17:03.337Z,103792.64
2022-08-03T08:18:00.787Z,104284.16
2022-08-03T08:19:00.905Z,104448
2022-08-03T08:20:01.080Z,104939.52
2022-08-03T08:21:01.194Z,104857.59
2022-08-03T08:22:02.718Z,104529.91
2022-08-03T08:23:01.940Z,104284.16
2022-08-03T08:24:01.563Z,104529.91
2022-08-03T08:25:01.804Z,104611.84
2022-08-03T08:26:01.827Z,104939.52
2022-08-03T08:27:01.959Z,104611.84
2022-08-03T08:28:22.028Z,104775.68
2022-08-03T08:29:02.698Z,104038.4
2022-08-03T08:30:08.762Z,103301.12
2022-08-03T08:31:02.490Z,102891.52
2022-08-03T08:32:02.572Z,102563.84
2022-08-03T08:33:02.729Z,101498.88
2022-08-03T08:34:04.243Z,101253.12
2022-08-03T08:35:03.031Z,101007.36
2022-08-03T08:36:03.142Z,101498.88
2022-08-03T08:37:03.277Z,101662.72
2022-08-03T08:38:05.568Z,101089.28
2022-08-03T08:39:03.576Z,102236.16
2022-08-03T08:40:03.701Z,102563.84
2022-08-03T08:41:03.841Z,102400
2022-08-03T08:42:03.990Z,102809.6
2022-08-03T08:43:04.170Z,103137.28
2022-08-03T08:44:04.780Z,103874.55
2022-08-03T08:45:04.436Z,103710.72
2022-08-03T08:46:04.539Z,103464.96
2022-08-03T08:47:04.697Z,104775.68
2022-08-03T08:48:08.170Z,105676.8
2022-08-03T08:49:05.344Z,105021.44
2022-08-03T08:50:09.982Z,104120.32
2022-08-03T08:51:05.340Z,103383.04
2022-08-03T08:52:22.176Z,102727.68
2022-08-03T08:53:05.564Z,102154.23
2022-08-03T08:54:05.710Z,102072.32
2022-08-03T08:55:05.874Z,101498.88
2022-08-03T08:56:06.009Z,102072.32
2022-08-03T08:57:16.365Z,101498.88
2022-08-03T08:58:06.310Z,101171.2
2022-08-03T08:59:07.044Z,101089.28
2022-08-03T09:00:06.519Z,101253.12
2022-08-03T09:01:06.743Z,100024.32
2022-08-03T09:02:06.833Z,99860.48
2022-08-03T09:03:06.988Z,99860.48
2022-08-03T09:04:07.086Z,100106.23
2022-08-03T09:05:07.731Z,100024.32
2022-08-03T09:06:07.387Z,99778.55
2022-08-03T09:07:19.498Z,99532.8
2022-08-03T09:08:07.580Z,99123.2
2022-08-03T09:09:07.775Z,99205.12
2022-08-03T09:10:10.722Z,99287.04
2022-08-03T09:11:08.043Z,99287.04
2022-08-03T09:12:35.257Z,99614.72
2022-08-03T09:13:08.359Z,99287.04
2022-08-03T09:14:09.030Z,99860.48
2022-08-03T09:15:16.811Z,99368.96
2022-08-03T09:16:08.759Z,99778.55
2022-08-03T09:17:08.929Z,99123.2
2022-08-03T09:18:08.985Z,97976.32
2022-08-03T09:19:09.151Z,98467.84
2022-08-03T09:20:09.322Z,98631.68
2022-08-03T09:21:24.457Z,98304
2022-08-03T09:22:09.615Z,98222.08
2022-08-03T09:23:33.408Z,96747.52
2022-08-03T09:24:16.666Z,95846.4
2022-08-03T09:25:23.707Z,96092.16
2022-08-03T09:26:10.173Z,96010.23
2022-08-03T09:27:10.275Z,96419.84
2022-08-03T09:28:10.563Z,96419.84
2022-08-03T09:29:14.721Z,96665.6
2022-08-03T09:30:19.237Z,96747.52
2022-08-03T09:31:10.791Z,96583.68
2022-08-03T09:32:10.930Z,96501.76
2022-08-03T09:33:11.093Z,96747.52
2022-08-03T09:34:11.212Z,96747.52
2022-08-03T09:35:11.344Z,96665.6
2022-08-03T09:36:11.450Z,96911.36
2022-08-03T09:37:11.596Z,96501.76
2022-08-03T09:38:12.422Z,96337.91
2022-08-03T09:39:11.875Z,96092.16
2022-08-03T09:40:11.995Z,95928.32
2022-08-03T09:41:12.182Z,96092.16
2022-08-03T09:42:14.561Z,95764.48
2022-08-03T09:43:12.477Z,95436.8
2022-08-03T09:44:16.045Z,95272.96
2022-08-03T09:45:12.749Z,94945.28
2022-08-03T09:46:12.866Z,95191.04
2022-08-03T09:47:13.063Z,95846.4
2022-08-03T09:48:13.157Z,95600.64
2022-08-03T09:49:13.379Z,95682.55
2022-08-03T09:50:13.872Z,95027.2
2022-08-03T09:51:32.664Z,94453.76
2022-08-03T09:52:30.146Z,94289.91
2022-08-03T09:53:13.775Z,93962.23
2022-08-03T09:54:18.953Z,93798.4
2022-08-03T09:55:23.788Z,93388.8
2022-08-03T09:57:14.310Z,93143.04
2022-08-03T09:58:14.433Z,92405.76
2022-08-03T09:59:15.199Z,92979.2
2022-08-03T10:00:14.725Z,92733.44
2022-08-03T10:01:23.736Z,92405.76
2022-08-03T10:02:15.055Z,92487.68
2022-08-03T10:03:15.189Z,92569.6
2022-08-03T10:05:35.743Z,91422.72
2022-08-03T10:06:34.940Z,91750.4
2022-08-03T10:07:34.608Z,91586.55
2022-08-03T10:08:34.761Z,91914.23
2022-08-03T10:09:34.865Z,91832.32
2022-08-03T10:10:35.010Z,91586.55
2022-08-03T10:12:27.789Z,91013.12
2022-08-03T10:13:25.521Z,90275.84
2022-08-03T10:14:26.344Z,89948.16
2022-08-03T10:16:20.836Z,89456.64
2022-08-03T10:16:26.079Z,88719.36
2022-08-03T10:17:26.007Z,88555.52
2022-08-03T10:18:26.192Z,87244.8
2022-08-03T10:19:26.312Z,86097.92
2022-08-03T10:20:26.486Z,86179.84
2022-08-03T10:21:26.636Z,85934.08
2022-08-03T10:22:26.770Z,85278.72
2022-08-03T10:23:27.862Z,84705.28
2022-08-03T10:24:27.075Z,84377.6
2022-08-03T10:25:33.077Z,83599.36
2022-08-03T10:26:27.386Z,83107.84
2022-08-03T10:27:27.538Z,82657.28
2022-08-03T10:28:27.632Z,82124.8
2022-08-03T10:29:28.526Z,80650.24
2022-08-03T10:30:27.933Z,80240.64
2022-08-03T10:31:28.038Z,77864.96
2022-08-03T10:32:28.230Z,72949.76
2022-08-03T10:33:49.401Z,76226.56
2022-08-03T10:34:28.449Z,74670.08
2022-08-03T10:35:28.555Z,77414.4
2022-08-03T10:36:28.660Z,77209.6
2022-08-03T10:37:28.803Z,76062.72
2022-08-03T10:38:28.957Z,75898.88
2022-08-03T10:39:29.108Z,74711.04
2022-08-03T10:40:47.891Z,76185.6
2022-08-03T10:41:29.406Z,75980.8
2022-08-03T10:42:29.561Z,75530.24
2022-08-03T10:43:29.714Z,74874.88
2022-08-03T10:44:30.372Z,74792.96
2022-08-03T10:45:29.958Z,74465.28
2022-08-03T10:46:30.072Z,73441.28
2022-08-03T10:47:30.218Z,73195.52
2022-08-03T10:48:30.327Z,72826.88
2022-08-03T10:49:35.058Z,72253.44
2022-08-03T10:50:30.637Z,72007.68
2022-08-03T10:51:30.846Z,71598.08
2022-08-03T10:52:32.716Z,71229.44
2022-08-03T10:53:31.122Z,71065.6
2022-08-03T10:54:31.237Z,70451.2
2022-08-03T10:55:31.337Z,70205.44
2022-08-03T10:56:36.831Z,70082.56
2022-08-03T10:57:31.631Z,69509.12
2022-08-03T10:58:31.784Z,69386.24
2022-08-03T10:59:31.895Z,69304.32
2022-08-03T11:00:32.099Z,69099.52
2022-08-03T11:01:32.216Z,68812.8
2022-08-03T11:02:32.359Z,68812.8
2022-08-03T11:03:32.447Z,68526.08
2022-08-03T11:05:28.052Z,68935.68
2022-08-03T11:06:26.041Z,68812.8
2022-08-03T11:07:26.155Z,68321.28
2022-08-03T11:08:26.340Z,67993.6
2022-08-03T11:09:26.452Z,67747.84
2022-08-03T11:10:26.612Z,67543.04
2022-08-03T11:11:26.760Z,67174.4
2022-08-03T11:12:27.907Z,66805.76
2022-08-03T11:14:45.913Z,66314.24
2022-08-03T11:15:44.350Z,66150.4
2022-08-03T11:16:44.458Z,65781.76
2022-08-03T11:17:46.009Z,65658.88
2022-08-03T11:18:44.725Z,65331.2
2022-08-03T11:19:56.424Z,64962.56
2022-08-03T11:20:44.974Z,64471.04
2022-08-03T11:21:45.123Z,64307.2
2022-08-03T11:22:45.268Z,63938.56
2022-08-03T11:24:03.709Z,63406.08
2022-08-03T11:24:45.535Z,63078.4
2022-08-03T11:25:54.491Z,62791.68
2022-08-03T11:26:45.830Z,62136.32
2022-08-03T11:27:45.977Z,61685.76
2022-08-03T11:28:46.132Z,61276.16
2022-08-03T11:29:46.874Z,60989.44
2022-08-03T11:30:46.529Z,60375.04
2022-08-03T11:31:50.081Z,59924.48
2022-08-03T11:34:33.066Z,58368
2022-08-03T11:35:28.265Z,57303.04
2022-08-03T11:36:32.140Z,55418.88
2022-08-03T11:37:32.950Z,52264.96
2022-08-03T11:38:28.652Z,55787.52
2022-08-03T11:39:28.723Z,55828.48
2022-08-03T11:40:28.891Z,55787.52
2022-08-03T11:41:29.071Z,55377.92
2022-08-03T11:42:29.218Z,55050.24
2022-08-03T11:43:31.163Z,54845.44
2022-08-03T11:44:30.111Z,54640.64
2022-08-03T11:45:29.605Z,54312.96
2022-08-03T11:46:30.104Z,54108.16
2022-08-03T11:47:29.838Z,53616.64
2022-08-03T11:48:29.952Z,53248
2022-08-03T11:49:30.125Z,52920.32
2022-08-03T11:50:30.260Z,52551.68
2022-08-03T11:51:30.411Z,52387.84
2022-08-03T11:52:30.551Z,52101.12
2022-08-03T11:53:30.766Z,51773.44
2022-08-03T11:54:32.676Z,51322.88
2022-08-03T11:55:32.083Z,51159.04
2022-08-03T11:56:31.258Z,50339.84
2022-08-03T11:58:57.241Z,50216.96
2022-08-03T11:59:31.745Z,49520.64
2022-08-03T12:00:31.909Z,49029.12
2022-08-03T12:01:32.849Z,47718.4
2022-08-03T12:02:32.176Z,44400.64
2022-08-03T12:03:32.463Z,40386.56
2022-08-03T12:04:32.477Z,42926.08
2022-08-03T12:05:32.627Z,42967.04
2022-08-03T12:06:32.779Z,42188.8
2022-08-03T12:08:02.907Z,43991.04
2022-08-03T12:08:33.048Z,46120.96
2022-08-03T12:09:33.200Z,46489.6
2022-08-03T12:10:33.328Z,45629.44
2022-08-03T12:11:33.474Z,42680.32
2022-08-03T12:12:34.786Z,42188.8
2022-08-03T12:13:57.447Z,43089.92
2022-08-03T12:15:34.026Z,39649.28
2022-08-03T12:16:34.155Z,39956.48
2022-08-03T12:17:34.355Z,40509.44
2022-08-03T12:18:35.379Z,40243.2
2022-08-03T12:19:34.633Z,39833.6
2022-08-03T12:20:35.539Z,43008
2022-08-03T12:21:34.955Z,38973.44
2022-08-03T12:22:35.065Z,39526.4
2022-08-03T12:23:37.770Z,39567.36
2022-08-03T12:24:35.310Z,40960